sensor_id;sensor_type;location;lat;lon;timestamp;temperature;humidity
53880;DHT22;39791;53.184;5.486;2022-12-17T00:01:52;1.90;99.90
53880;DHT22;39791;53.184;5.486;2022-12-17T00:04:37;2.60;99.90
53880;DHT22;39791;53.184;5.486;2022-12-17T00:07:21;0.50;99.90
53880;DHT22;39791;53.184;5.486;2022-12-17T00:10:06;0.80;99.90
53880;DHT22;39791;53.184;5.486;2022-12-17T00:12:50;2.70;99.90
53880;DHT22;39791;53.184;5.486;2022-12-17T00:15:34;0.70;99.90
53880;DHT22;39791;53.184;5.486;2022-12-17T00:18:19;0.50;99.90
53880;DHT22;39791;53.184;5.486;2022-12-17T00:21:04;0.70;99.90
53880;DHT22;39791;53.184;5.486;2022-12-17T00:23:48;0.90;99.90
53880;DHT22;39791;53.184;5.486;2022-12-17T00:26:32;2.20;99.90
53880;DHT22;39791;53.184;5.486;2022-12-17T00:29:17;0.80;99.90
53880;DHT22;39791;53.184;5.486;2022-12-17T00:32:01;0.80;99.90
53880;DHT22;39791;53.184;5.486;2022-12-17T00:34:46;2.00;99.90
53880;DHT22;39791;53.184;5.486;2022-12-17T00:37:30;0.90;99.90
53880;DHT22;39791;53.184;5.486;2022-12-17T00:40:14;2.00;99.90
53880;DHT22;39791;53.184;5.486;2022-12-17T00:45:47;1.00;99.90
53880;DHT22;39791;53.184;5.486;2022-12-17T00:48:31;1.50;99.90
53880;DHT22;39791;53.184;5.486;2022-12-17T00:51:16;2.80;99.90
53880;DHT22;39791;53.184;5.486;2022-12-17T00:54:00;2.80;99.90
53880;DHT22;39791;53.184;5.486;2022-12-17T00:56:44;2.10;99.90
53880;DHT22;39791;53.184;5.486;2022-12-17T00:59:29;2.90;99.90
53880;DHT22;39791;53.184;5.486;2022-12-17T01:02:21;2.40;99.90
53880;DHT22;39791;53.184;5.486;2022-12-17T01:05:06;2.70;99.90
53880;DHT22;39791;53.184;5.486;2022-12-17T01:07:50;3.10;99.90
53880;DHT22;39791;53.184;5.486;2022-12-17T01:10:35;2.70;99.90
53880;DHT22;39791;53.184;5.486;2022-12-17T01:13:19;1.50;99.90
53880;DHT22;39791;53.184;5.486;2022-12-17T01:16:12;2.90;99.90
53880;DHT22;39791;53.184;5.486;2022-12-17T01:18:56;1.90;99.90
53880;DHT22;39791;53.184;5.486;2022-12-17T01:21:41;2.80;99.90
53880;DHT22;39791;53.184;5.486;2022-12-17T01:24:25;1.00;99.90
53880;DHT22;39791;53.184;5.486;2022-12-17T01:27:10;1.40;99.90
53880;DHT22;39791;53.184;5.486;2022-12-17T01:29:54;2.80;99.90
53880;DHT22;39791;53.184;5.486;2022-12-17T01:32:39;0.60;99.90
53880;DHT22;39791;53.184;5.486;2022-12-17T01:35:23;2.70;99.90
53880;DHT22;39791;53.184;5.486;2022-12-17T01:38:15;0.60;99.90
53880;DHT22;39791;53.184;5.486;2022-12-17T01:41:01;0.50;99.90
53880;DHT22;39791;53.184;5.486;2022-12-17T01:43:45;2.00;99.90
53880;DHT22;39791;53.184;5.486;2022-12-17T01:46:33;0.70;99.90
53880;DHT22;39791;53.184;5.486;2022-12-17T01:49:20;0.60;99.90
53880;DHT22;39791;53.184;5.486;2022-12-17T01:52:05;1.40;99.90
53880;DHT22;39791;53.184;5.486;2022-12-17T01:54:50;2.80;99.90
53880;DHT22;39791;53.184;5.486;2022-12-17T01:57:35;1.40;99.90
53880;DHT22;39791;53.184;5.486;2022-12-17T02:00:20;1.10;99.90
53880;DHT22;39791;53.184;5.486;2022-12-17T02:03:04;2.10;99.90
53880;DHT22;39791;53.184;5.486;2022-12-17T02:12:33;1.40;99.90
53880;DHT22;39791;53.184;5.486;2022-12-17T02:15:33;2.00;99.90
53880;DHT22;39791;53.184;5.486;2022-12-17T02:18:30;2.40;99.90
53880;DHT22;39791;53.184;5.486;2022-12-17T02:21:18;2.40;99.90
53880;DHT22;39791;53.184;5.486;2022-12-17T02:24:08;0.90;99.90
53880;DHT22;39791;53.184;5.486;2022-12-17T02:27:12;2.70;99.90
53880;DHT22;39791;53.184;5.486;2022-12-17T02:30:01;2.50;99.90
53880;DHT22;39791;53.184;5.486;2022-12-17T02:32:47;1.10;99.90
53880;DHT22;39791;53.184;5.486;2022-12-17T02:35:36;1.20;99.90
53880;DHT22;39791;53.184;5.486;2022-12-17T02:38:24;1.80;99.90
53880;DHT22;39791;53.184;5.486;2022-12-17T02:41:12;2.50;99.90
53880;DHT22;39791;53.184;5.486;2022-12-17T02:44:02;2.40;99.90
53880;DHT22;39791;53.184;5.486;2022-12-17T02:46:48;0.50;99.90
53880;DHT22;39791;53.184;5.486;2022-12-17T02:49:34;1.90;99.90
53880;DHT22;39791;53.184;5.486;2022-12-17T02:52:20;2.70;99.90
53880;DHT22;39791;53.184;5.486;2022-12-17T02:55:05;2.60;99.90
53880;DHT22;39791;53.184;5.486;2022-12-17T02:57:49;2.60;99.90
53880;DHT22;39791;53.184;5.486;2022-12-17T03:00:33;2.50;99.90
53880;DHT22;39791;53.184;5.486;2022-12-17T03:03:18;2.50;99.90
53880;DHT22;39791;53.184;5.486;2022-12-17T03:06:02;0.70;99.90
53880;DHT22;39791;53.184;5.486;2022-12-17T03:08:46;1.90;99.90
53880;DHT22;39791;53.184;5.486;2022-12-17T03:11:31;2.60;99.90
53880;DHT22;39791;53.184;5.486;2022-12-17T03:14:15;0.50;99.90
53880;DHT22;39791;53.184;5.486;2022-12-17T03:16:59;1.70;99.90
53880;DHT22;39791;53.184;5.486;2022-12-17T03:19:44;2.30;99.90
53880;DHT22;39791;53.184;5.486;2022-12-17T03:22:28;2.30;99.90
53880;DHT22;39791;53.184;5.486;2022-12-17T03:25:12;2.60;99.90
53880;DHT22;39791;53.184;5.486;2022-12-17T03:28:05;1.60;99.90
53880;DHT22;39791;53.184;5.486;2022-12-17T03:30:50;0.50;99.90
53880;DHT22;39791;53.184;5.486;2022-12-17T03:33:34;2.60;99.90
53880;DHT22;39791;53.184;5.486;2022-12-17T03:36:18;1.60;99.90
53880;DHT22;39791;53.184;5.486;2022-12-17T03:39:02;1.70;99.90
53880;DHT22;39791;53.184;5.486;2022-12-17T03:41:47;1.50;99.90
53880;DHT22;39791;53.184;5.486;2022-12-17T03:44:31;1.80;99.90
53880;DHT22;39791;53.184;5.486;2022-12-17T03:47:15;1.70;99.90
53880;DHT22;39791;53.184;5.486;2022-12-17T03:50:00;1.70;99.90
53880;DHT22;39791;53.184;5.486;2022-12-17T03:52:44;2.00;99.90
53880;DHT22;39791;53.184;5.486;2022-12-17T03:55:28;2.20;99.90
53880;DHT22;39791;53.184;5.486;2022-12-17T03:58:12;0.90;99.90
53880;DHT22;39791;53.184;5.486;2022-12-17T04:00:57;1.20;99.90
53880;DHT22;39791;53.184;5.486;2022-12-17T04:03:41;0.50;99.90
53880;DHT22;39791;53.184;5.486;2022-12-17T04:06:25;1.80;99.90
53880;DHT22;39791;53.184;5.486;2022-12-17T04:09:09;2.60;99.90
53880;DHT22;39791;53.184;5.486;2022-12-17T04:11:53;0.80;99.90
53880;DHT22;39791;53.184;5.486;2022-12-17T04:14:38;0.40;99.90
53880;DHT22;39791;53.184;5.486;2022-12-17T04:17:39;2.30;99.90
53880;DHT22;39791;53.184;5.486;2022-12-17T04:20:23;0.50;99.90
53880;DHT22;39791;53.184;5.486;2022-12-17T04:23:07;1.50;99.90
53880;DHT22;39791;53.184;5.486;2022-12-17T04:25:52;2.70;99.90
53880;DHT22;39791;53.184;5.486;2022-12-17T04:28:36;2.70;99.90
53880;DHT22;39791;53.184;5.486;2022-12-17T04:31:20;1.90;99.90
53880;DHT22;39791;53.184;5.486;2022-12-17T04:34:05;0.70;99.90
53880;DHT22;39791;53.184;5.486;2022-12-17T04:36:49;1.90;99.90
53880;DHT22;39791;53.184;5.486;2022-12-17T04:39:33;0.90;99.90
53880;DHT22;39791;53.184;5.486;2022-12-17T04:42:18;1.60;99.90
53880;DHT22;39791;53.184;5.486;2022-12-17T04:45:02;2.30;99.90
53880;DHT22;39791;53.184;5.486;2022-12-17T04:47:46;2.80;99.90
53880;DHT22;39791;53.184;5.486;2022-12-17T04:50:30;0.50;99.90
53880;DHT22;39791;53.184;5.486;2022-12-17T04:53:15;0.40;99.90
53880;DHT22;39791;53.184;5.486;2022-12-17T04:55:59;0.50;99.90
53880;DHT22;39791;53.184;5.486;2022-12-17T04:58:45;2.50;99.90
53880;DHT22;39791;53.184;5.486;2022-12-17T05:01:29;2.80;99.90
53880;DHT22;39791;53.184;5.486;2022-12-17T05:04:18;2.80;99.90
53880;DHT22;39791;53.184;5.486;2022-12-17T05:07:02;2.70;99.90
53880;DHT22;39791;53.184;5.486;2022-12-17T05:09:46;1.00;99.90
53880;DHT22;39791;53.184;5.486;2022-12-17T05:12:31;2.60;99.90
53880;DHT22;39791;53.184;5.486;2022-12-17T05:15:15;1.80;99.90
53880;DHT22;39791;53.184;5.486;2022-12-17T05:18:04;0.80;99.90
53880;DHT22;39791;53.184;5.486;2022-12-17T05:20:48;3.00;99.90
53880;DHT22;39791;53.184;5.486;2022-12-17T05:23:32;0.80;99.90
53880;DHT22;39791;53.184;5.486;2022-12-17T05:26:22;1.60;99.90
53880;DHT22;39791;53.184;5.486;2022-12-17T05:29:07;0.70;99.90
53880;DHT22;39791;53.184;5.486;2022-12-17T05:31:51;1.50;99.90
53880;DHT22;39791;53.184;5.486;2022-12-17T05:34:35;1.40;99.90
53880;DHT22;39791;53.184;5.486;2022-12-17T05:37:20;1.90;99.90
53880;DHT22;39791;53.184;5.486;2022-12-17T05:40:05;0.90;99.90
53880;DHT22;39791;53.184;5.486;2022-12-17T05:43:00;2.70;99.90
53880;DHT22;39791;53.184;5.486;2022-12-17T05:45:45;2.60;99.90
53880;DHT22;39791;53.184;5.486;2022-12-17T05:48:31;2.40;99.90
53880;DHT22;39791;53.184;5.486;2022-12-17T05:51:16;2.20;99.90
53880;DHT22;39791;53.184;5.486;2022-12-17T05:54:00;1.90;99.90
53880;DHT22;39791;53.184;5.486;2022-12-17T05:56:44;1.50;99.90
53880;DHT22;39791;53.184;5.486;2022-12-17T05:59:28;2.30;99.90
53880;DHT22;39791;53.184;5.486;2022-12-17T06:02:13;2.30;99.90
53880;DHT22;39791;53.184;5.486;2022-12-17T06:04:57;1.70;99.90
53880;DHT22;39791;53.184;5.486;2022-12-17T06:07:41;0.80;99.90
53880;DHT22;39791;53.184;5.486;2022-12-17T06:10:26;0.70;99.90
53880;DHT22;39791;53.184;5.486;2022-12-17T06:13:10;1.70;99.90
53880;DHT22;39791;53.184;5.486;2022-12-17T06:15:54;2.00;99.90
53880;DHT22;39791;53.184;5.486;2022-12-17T06:18:39;0.80;99.90
53880;DHT22;39791;53.184;5.486;2022-12-17T06:21:23;2.50;99.90
53880;DHT22;39791;53.184;5.486;2022-12-17T06:24:08;1.60;99.90
53880;DHT22;39791;53.184;5.486;2022-12-17T06:26:52;2.00;99.90
53880;DHT22;39791;53.184;5.486;2022-12-17T06:29:36;2.40;99.90
53880;DHT22;39791;53.184;5.486;2022-12-17T06:32:20;0.70;99.90
53880;DHT22;39791;53.184;5.486;2022-12-17T06:35:05;2.30;99.90
53880;DHT22;39791;53.184;5.486;2022-12-17T06:38:03;1.60;99.90
53880;DHT22;39791;53.184;5.486;2022-12-17T06:40:49;2.30;99.90
53880;DHT22;39791;53.184;5.486;2022-12-17T06:43:33;1.70;99.90
53880;DHT22;39791;53.184;5.486;2022-12-17T06:46:17;1.20;99.90
53880;DHT22;39791;53.184;5.486;2022-12-17T06:49:02;1.40;99.90
53880;DHT22;39791;53.184;5.486;2022-12-17T06:51:46;1.70;99.90
53880;DHT22;39791;53.184;5.486;2022-12-17T06:54:30;1.80;99.90
53880;DHT22;39791;53.184;5.486;2022-12-17T06:57:15;0.60;99.90
53880;DHT22;39791;53.184;5.486;2022-12-17T06:59:59;2.40;99.90
53880;DHT22;39791;53.184;5.486;2022-12-17T07:02:43;1.70;99.90
53880;DHT22;39791;53.184;5.486;2022-12-17T07:05:28;2.00;99.90
53880;DHT22;39791;53.184;5.486;2022-12-17T07:08:12;2.20;99.90
53880;DHT22;39791;53.184;5.486;2022-12-17T07:11:00;0.60;99.90
53880;DHT22;39791;53.184;5.486;2022-12-17T07:13:44;1.60;99.90
53880;DHT22;39791;53.184;5.486;2022-12-17T07:16:29;0.60;99.90
53880;DHT22;39791;53.184;5.486;2022-12-17T07:19:13;2.30;99.90
53880;DHT22;39791;53.184;5.486;2022-12-17T07:21:57;1.50;99.90
53880;DHT22;39791;53.184;5.486;2022-12-17T07:24:41;2.30;99.90
53880;DHT22;39791;53.184;5.486;2022-12-17T07:27:26;0.50;99.90
53880;DHT22;39791;53.184;5.486;2022-12-17T07:30:11;0.60;99.90
53880;DHT22;39791;53.184;5.486;2022-12-17T07:33:04;1.20;99.90
53880;DHT22;39791;53.184;5.486;2022-12-17T07:35:48;1.30;99.90
53880;DHT22;39791;53.184;5.486;2022-12-17T07:38:34;1.00;99.90
53880;DHT22;39791;53.184;5.486;2022-12-17T07:41:19;2.30;99.90
53880;DHT22;39791;53.184;5.486;2022-12-17T07:44:03;0.50;99.90
53880;DHT22;39791;53.184;5.486;2022-12-17T07:46:47;0.40;99.90
53880;DHT22;39791;53.184;5.486;2022-12-17T07:49:32;0.70;99.90
53880;DHT22;39791;53.184;5.486;2022-12-17T07:52:16;1.80;99.90
53880;DHT22;39791;53.184;5.486;2022-12-17T07:55:00;1.90;99.90
53880;DHT22;39791;53.184;5.486;2022-12-17T07:57:45;0.30;99.90
53880;DHT22;39791;53.184;5.486;2022-12-17T08:00:29;2.00;99.90
53880;DHT22;39791;53.184;5.486;2022-12-17T08:03:13;0.30;99.90
53880;DHT22;39791;53.184;5.486;2022-12-17T08:05:58;1.90;99.90
53880;DHT22;39791;53.184;5.486;2022-12-17T08:08:42;1.10;99.90
53880;DHT22;39791;53.184;5.486;2022-12-17T08:11:27;0.20;99.90
53880;DHT22;39791;53.184;5.486;2022-12-17T08:14:11;1.70;99.90
53880;DHT22;39791;53.184;5.486;2022-12-17T08:16:55;1.00;99.90
53880;DHT22;39791;53.184;5.486;2022-12-17T08:19:39;1.40;99.90
53880;DHT22;39791;53.184;5.486;2022-12-17T08:22:23;1.70;99.90
53880;DHT22;39791;53.184;5.486;2022-12-17T08:25:08;1.80;99.90
53880;DHT22;39791;53.184;5.486;2022-12-17T08:27:56;0.40;99.90
53880;DHT22;39791;53.184;5.486;2022-12-17T08:30:41;0.90;99.90
53880;DHT22;39791;53.184;5.486;2022-12-17T08:33:25;2.00;99.90
53880;DHT22;39791;53.184;5.486;2022-12-17T08:36:10;0.40;99.90
53880;DHT22;39791;53.184;5.486;2022-12-17T08:38:54;1.90;99.90
53880;DHT22;39791;53.184;5.486;2022-12-17T08:41:38;0.50;99.90
53880;DHT22;39791;53.184;5.486;2022-12-17T08:44:23;0.70;99.90
53880;DHT22;39791;53.184;5.486;2022-12-17T08:47:07;0.70;99.90
53880;DHT22;39791;53.184;5.486;2022-12-17T08:49:51;0.90;99.90
53880;DHT22;39791;53.184;5.486;2022-12-17T08:52:35;0.70;99.90
53880;DHT22;39791;53.184;5.486;2022-12-17T08:55:20;2.30;99.90
53880;DHT22;39791;53.184;5.486;2022-12-17T08:58:04;0.90;99.90
53880;DHT22;39791;53.184;5.486;2022-12-17T09:00:48;1.50;99.90
53880;DHT22;39791;53.184;5.486;2022-12-17T09:03:32;2.10;99.90
53880;DHT22;39791;53.184;5.486;2022-12-17T09:06:17;1.70;99.90
53880;DHT22;39791;53.184;5.486;2022-12-17T09:09:01;2.50;99.90
53880;DHT22;39791;53.184;5.486;2022-12-17T09:11:45;2.60;99.90
53880;DHT22;39791;53.184;5.486;2022-12-17T09:14:29;1.00;99.90
53880;DHT22;39791;53.184;5.486;2022-12-17T09:17:14;2.20;99.90
53880;DHT22;39791;53.184;5.486;2022-12-17T09:19:58;1.10;99.90
53880;DHT22;39791;53.184;5.486;2022-12-17T09:22:42;1.80;99.90
53880;DHT22;39791;53.184;5.486;2022-12-17T09:25:27;2.20;99.90
53880;DHT22;39791;53.184;5.486;2022-12-17T09:28:11;1.30;99.90
53880;DHT22;39791;53.184;5.486;2022-12-17T09:30:59;1.10;99.90
53880;DHT22;39791;53.184;5.486;2022-12-17T09:33:44;2.50;99.90
53880;DHT22;39791;53.184;5.486;2022-12-17T09:36:28;2.60;99.90
53880;DHT22;39791;53.184;5.486;2022-12-17T09:39:12;2.70;99.90
53880;DHT22;39791;53.184;5.486;2022-12-17T09:42:20;1.10;99.90
53880;DHT22;39791;53.184;5.486;2022-12-17T09:45:21;1.60;99.90
53880;DHT22;39791;53.184;5.486;2022-12-17T09:48:32;2.40;99.90
53880;DHT22;39791;53.184;5.486;2022-12-17T09:51:24;1.80;99.90
53880;DHT22;39791;53.184;5.486;2022-12-17T09:54:36;2.90;99.90
53880;DHT22;39791;53.184;5.486;2022-12-17T09:57:28;1.70;99.90
53880;DHT22;39791;53.184;5.486;2022-12-17T10:00:17;2.10;99.90
53880;DHT22;39791;53.184;5.486;2022-12-17T10:03:03;2.90;99.90
53880;DHT22;39791;53.184;5.486;2022-12-17T10:05:53;1.60;99.90
53880;DHT22;39791;53.184;5.486;2022-12-17T10:08:38;3.10;99.90
53880;DHT22;39791;53.184;5.486;2022-12-17T10:11:26;1.60;99.90
53880;DHT22;39791;53.184;5.486;2022-12-17T10:14:19;3.10;99.90
53880;DHT22;39791;53.184;5.486;2022-12-17T10:17:04;2.00;99.90
53880;DHT22;39791;53.184;5.486;2022-12-17T10:19:50;3.40;99.90
53880;DHT22;39791;53.184;5.486;2022-12-17T10:22:43;2.10;99.90
53880;DHT22;39791;53.184;5.486;2022-12-17T10:25:27;2.10;99.90
53880;DHT22;39791;53.184;5.486;2022-12-17T10:28:16;2.90;99.90
53880;DHT22;39791;53.184;5.486;2022-12-17T10:31:06;2.60;99.90
53880;DHT22;39791;53.184;5.486;2022-12-17T10:33:56;2.10;99.90
53880;DHT22;39791;53.184;5.486;2022-12-17T10:36:50;2.10;99.90
53880;DHT22;39791;53.184;5.486;2022-12-17T10:39:36;3.00;99.90
53880;DHT22;39791;53.184;5.486;2022-12-17T10:42:26;3.30;99.90
53880;DHT22;39791;53.184;5.486;2022-12-17T10:45:31;2.50;99.90
53880;DHT22;39791;53.184;5.486;2022-12-17T10:48:23;3.50;99.90
53880;DHT22;39791;53.184;5.486;2022-12-17T10:51:30;2.80;99.90
53880;DHT22;39791;53.184;5.486;2022-12-17T10:54:29;2.20;99.90
53880;DHT22;39791;53.184;5.486;2022-12-17T11:00:22;2.90;99.90
53880;DHT22;39791;53.184;5.486;2022-12-17T11:03:29;2.70;99.90
53880;DHT22;39791;53.184;5.486;2022-12-17T11:09:21;3.40;99.90
53880;DHT22;39791;53.184;5.486;2022-12-17T11:12:09;2.40;99.90
53880;DHT22;39791;53.184;5.486;2022-12-17T11:14:56;2.40;99.90
53880;DHT22;39791;53.184;5.486;2022-12-17T11:17:42;3.50;99.90
53880;DHT22;39791;53.184;5.486;2022-12-17T11:20:49;3.10;99.90
53880;DHT22;39791;53.184;5.486;2022-12-17T11:23:36;2.60;99.90
53880;DHT22;39791;53.184;5.486;2022-12-17T11:26:24;3.50;99.90
53880;DHT22;39791;53.184;5.486;2022-12-17T11:29:12;2.90;99.90
53880;DHT22;39791;53.184;5.486;2022-12-17T11:35:27;3.50;99.90
53880;DHT22;39791;53.184;5.486;2022-12-17T11:38:37;2.60;99.90
53880;DHT22;39791;53.184;5.486;2022-12-17T11:41:33;3.20;99.90
53880;DHT22;39791;53.184;5.486;2022-12-17T11:44:27;2.70;99.90
53880;DHT22;39791;53.184;5.486;2022-12-17T11:47:32;2.70;99.90
53880;DHT22;39791;53.184;5.486;2022-12-17T11:50:32;3.40;99.90
53880;DHT22;39791;53.184;5.486;2022-12-17T11:53:40;3.60;99.90
53880;DHT22;39791;53.184;5.486;2022-12-17T11:56:51;3.10;99.90
53880;DHT22;39791;53.184;5.486;2022-12-17T11:59:46;3.20;99.90
53880;DHT22;39791;53.184;5.486;2022-12-17T12:05:46;3.30;99.90
53880;DHT22;39791;53.184;5.486;2022-12-17T12:08:48;2.80;99.90
53880;DHT22;39791;53.184;5.486;2022-12-17T12:17:57;3.20;99.90
53880;DHT22;39791;53.184;5.486;2022-12-17T12:21:09;2.90;96.20
53880;DHT22;39791;53.184;5.486;2022-12-17T12:23:59;3.50;99.90
53880;DHT22;39791;53.184;5.486;2022-12-17T12:30:10;2.80;99.90
53880;DHT22;39791;53.184;5.486;2022-12-17T12:36:00;3.30;1.00
53880;DHT22;39791;53.184;5.486;2022-12-17T12:38:52;2.90;99.90
53880;DHT22;39791;53.184;5.486;2022-12-17T12:41:57;3.40;99.90
53880;DHT22;39791;53.184;5.486;2022-12-17T12:50:59;3.00;99.90
53880;DHT22;39791;53.184;5.486;2022-12-17T12:53:56;3.00;99.90
53880;DHT22;39791;53.184;5.486;2022-12-17T12:56:40;2.90;42.90
53880;DHT22;39791;53.184;5.486;2022-12-17T12:59:32;3.20;1.00
53880;DHT22;39791;53.184;5.486;2022-12-17T13:05:15;3.40;99.90
53880;DHT22;39791;53.184;5.486;2022-12-17T13:08:02;3.70;99.90
53880;DHT22;39791;53.184;5.486;2022-12-17T13:10:29;3.20;99.90
53880;DHT22;39791;53.184;5.486;2022-12-17T13:12:56;2.90;8.10
53880;DHT22;39791;53.184;5.486;2022-12-17T13:15:30;3.30;1.00
53880;DHT22;39791;53.184;5.486;2022-12-17T13:18:37;2.90;99.90
53880;DHT22;39791;53.184;5.486;2022-12-17T13:21:24;3.50;99.90
53880;DHT22;39791;53.184;5.486;2022-12-17T13:23:50;3.40;99.90
53880;DHT22;39791;53.184;5.486;2022-12-17T13:26:40;2.70;1.00
53880;DHT22;39791;53.184;5.486;2022-12-17T13:32:14;2.80;99.90
53880;DHT22;39791;53.184;5.486;2022-12-17T13:42:45;3.30;99.90
53880;DHT22;39791;53.184;5.486;2022-12-17T13:45:16;2.70;99.90
53880;DHT22;39791;53.184;5.486;2022-12-17T13:47:42;3.30;39.50
53880;DHT22;39791;53.184;5.486;2022-12-17T13:50:20;3.20;1.00
53880;DHT22;39791;53.184;5.486;2022-12-17T13:52:46;3.10;1.00
53880;DHT22;39791;53.184;5.486;2022-12-17T13:55:23;2.80;99.90
53880;DHT22;39791;53.184;5.486;2022-12-17T13:57:50;2.60;99.90
53880;DHT22;39791;53.184;5.486;2022-12-17T14:00:25;2.50;99.90
53880;DHT22;39791;53.184;5.486;2022-12-17T14:02:52;2.80;99.90
53880;DHT22;39791;53.184;5.486;2022-12-17T14:07:49;2.90;99.90
53880;DHT22;39791;53.184;5.486;2022-12-17T14:10:16;2.90;99.90
53880;DHT22;39791;53.184;5.486;2022-12-17T14:12:42;2.60;99.90
53880;DHT22;39791;53.184;5.486;2022-12-17T14:15:24;3.10;96.70
53880;DHT22;39791;53.184;5.486;2022-12-17T14:17:50;2.90;90.60
53880;DHT22;39791;53.184;5.486;2022-12-17T14:20:20;2.60;27.80
53880;DHT22;39791;53.184;5.486;2022-12-17T14:22:49;2.50;1.00
53880;DHT22;39791;53.184;5.486;2022-12-17T14:25:19;3.00;1.00
53880;DHT22;39791;53.184;5.486;2022-12-17T14:30:41;3.00;1.00
53880;DHT22;39791;53.184;5.486;2022-12-17T14:33:31;2.80;1.00
53880;DHT22;39791;53.184;5.486;2022-12-17T14:36:06;2.90;1.00
53880;DHT22;39791;53.184;5.486;2022-12-17T14:38:33;2.80;1.00
53880;DHT22;39791;53.184;5.486;2022-12-17T14:41:11;2.50;1.00
53880;DHT22;39791;53.184;5.486;2022-12-17T14:43:57;2.80;1.00
53880;DHT22;39791;53.184;5.486;2022-12-17T14:46:23;2.80;99.90
53880;DHT22;39791;53.184;5.486;2022-12-17T14:49:02;2.30;99.90
53880;DHT22;39791;53.184;5.486;2022-12-17T14:51:38;2.90;99.90
53880;DHT22;39791;53.184;5.486;2022-12-17T14:56:51;2.20;99.90
53880;DHT22;39791;53.184;5.486;2022-12-17T14:59:34;2.70;99.90
53880;DHT22;39791;53.184;5.486;2022-12-17T15:02:04;2.70;99.90
53880;DHT22;39791;53.184;5.486;2022-12-17T15:04:38;2.60;99.90
53880;DHT22;39791;53.184;5.486;2022-12-17T15:07:05;2.70;99.90
53880;DHT22;39791;53.184;5.486;2022-12-17T15:09:37;2.60;99.90
53880;DHT22;39791;53.184;5.486;2022-12-17T15:12:04;2.30;99.90
53880;DHT22;39791;53.184;5.486;2022-12-17T15:14:29;2.60;99.90
53880;DHT22;39791;53.184;5.486;2022-12-17T15:16:55;2.20;99.90
53880;DHT22;39791;53.184;5.486;2022-12-17T15:19:23;2.50;99.90
53880;DHT22;39791;53.184;5.486;2022-12-17T15:21:48;1.80;99.90
53880;DHT22;39791;53.184;5.486;2022-12-17T15:24:17;2.30;99.90
53880;DHT22;39791;53.184;5.486;2022-12-17T15:26:44;3.00;99.90
53880;DHT22;39791;53.184;5.486;2022-12-17T15:29:10;2.60;99.90
53880;DHT22;39791;53.184;5.486;2022-12-17T15:31:36;1.80;99.90
53880;DHT22;39791;53.184;5.486;2022-12-17T15:34:01;2.40;99.90
53880;DHT22;39791;53.184;5.486;2022-12-17T15:36:27;1.80;99.90
53880;DHT22;39791;53.184;5.486;2022-12-17T15:38:52;2.40;99.90
53880;DHT22;39791;53.184;5.486;2022-12-17T15:41:18;2.30;99.90
53880;DHT22;39791;53.184;5.486;2022-12-17T15:44:02;2.10;99.90
53880;DHT22;39791;53.184;5.486;2022-12-17T15:46:27;1.90;99.90
53880;DHT22;39791;53.184;5.486;2022-12-17T15:48:55;2.20;99.90
53880;DHT22;39791;53.184;5.486;2022-12-17T15:51:21;1.90;99.90
53880;DHT22;39791;53.184;5.486;2022-12-17T15:53:49;1.90;96.50
53880;DHT22;39791;53.184;5.486;2022-12-17T15:56:20;1.80;25.70
53880;DHT22;39791;53.184;5.486;2022-12-17T15:58:47;1.70;33.50
53880;DHT22;39791;53.184;5.486;2022-12-17T16:01:13;1.80;99.90
53880;DHT22;39791;53.184;5.486;2022-12-17T16:03:39;2.60;99.90
53880;DHT22;39791;53.184;5.486;2022-12-17T16:06:05;2.50;99.90
53880;DHT22;39791;53.184;5.486;2022-12-17T16:08:30;2.50;99.90
53880;DHT22;39791;53.184;5.486;2022-12-17T16:10:56;2.50;99.90
53880;DHT22;39791;53.184;5.486;2022-12-17T16:13:21;2.10;99.90
53880;DHT22;39791;53.184;5.486;2022-12-17T16:15:55;1.60;95.70
53880;DHT22;39791;53.184;5.486;2022-12-17T16:18:21;2.00;99.90
53880;DHT22;39791;53.184;5.486;2022-12-17T16:20:48;1.60;99.90
53880;DHT22;39791;53.184;5.486;2022-12-17T16:23:13;2.00;79.50
53880;DHT22;39791;53.184;5.486;2022-12-17T16:25:39;2.20;63.40
53880;DHT22;39791;53.184;5.486;2022-12-17T16:28:04;1.50;32.20
53880;DHT22;39791;53.184;5.486;2022-12-17T16:30:30;2.00;6.00
53880;DHT22;39791;53.184;5.486;2022-12-17T16:32:59;2.40;99.90
53880;DHT22;39791;53.184;5.486;2022-12-17T16:35:25;1.60;99.90
53880;DHT22;39791;53.184;5.486;2022-12-17T16:37:53;1.70;99.90
53880;DHT22;39791;53.184;5.486;2022-12-17T16:40:19;1.50;99.90
53880;DHT22;39791;53.184;5.486;2022-12-17T16:42:44;2.10;99.90
53880;DHT22;39791;53.184;5.486;2022-12-17T16:45:10;2.20;99.90
53880;DHT22;39791;53.184;5.486;2022-12-17T16:47:35;1.40;99.90
53880;DHT22;39791;53.184;5.486;2022-12-17T16:50:01;2.00;99.90
53880;DHT22;39791;53.184;5.486;2022-12-17T16:52:27;1.30;99.90
53880;DHT22;39791;53.184;5.486;2022-12-17T16:54:52;2.20;99.90
53880;DHT22;39791;53.184;5.486;2022-12-17T16:57:18;2.00;99.90
53880;DHT22;39791;53.184;5.486;2022-12-17T16:59:43;1.20;99.90
53880;DHT22;39791;53.184;5.486;2022-12-17T17:02:13;1.80;75.00
53880;DHT22;39791;53.184;5.486;2022-12-17T17:04:39;1.00;99.40
53880;DHT22;39791;53.184;5.486;2022-12-17T17:07:04;1.80;99.90
53880;DHT22;39791;53.184;5.486;2022-12-17T17:09:31;2.10;99.90
53880;DHT22;39791;53.184;5.486;2022-12-17T17:11:57;1.10;99.90
53880;DHT22;39791;53.184;5.486;2022-12-17T17:14:24;1.20;99.90
53880;DHT22;39791;53.184;5.486;2022-12-17T17:16:50;1.90;99.90
53880;DHT22;39791;53.184;5.486;2022-12-17T17:19:16;1.10;99.90
53880;DHT22;39791;53.184;5.486;2022-12-17T17:21:51;1.60;99.90
53880;DHT22;39791;53.184;5.486;2022-12-17T17:24:18;1.10;99.90
53880;DHT22;39791;53.184;5.486;2022-12-17T17:26:45;1.00;99.90
53880;DHT22;39791;53.184;5.486;2022-12-17T17:29:11;2.00;99.90
53880;DHT22;39791;53.184;5.486;2022-12-17T17:31:37;1.10;99.90
53880;DHT22;39791;53.184;5.486;2022-12-17T17:34:11;1.90;99.90
53880;DHT22;39791;53.184;5.486;2022-12-17T17:36:38;1.20;99.90
53880;DHT22;39791;53.184;5.486;2022-12-17T17:39:04;2.10;99.90
53880;DHT22;39791;53.184;5.486;2022-12-17T17:41:31;2.00;1.00
53880;DHT22;39791;53.184;5.486;2022-12-17T17:44:05;2.30;1.00
53880;DHT22;39791;53.184;5.486;2022-12-17T17:46:32;2.20;1.00
53880;DHT22;39791;53.184;5.486;2022-12-17T17:48:59;2.20;1.00
53880;DHT22;39791;53.184;5.486;2022-12-17T17:51:27;1.30;1.00
53880;DHT22;39791;53.184;5.486;2022-12-17T17:53:54;1.20;1.00
53880;DHT22;39791;53.184;5.486;2022-12-17T17:56:22;1.40;1.00
53880;DHT22;39791;53.184;5.486;2022-12-17T17:58:51;1.40;1.00
53880;DHT22;39791;53.184;5.486;2022-12-17T18:01:25;1.90;99.90
53880;DHT22;39791;53.184;5.486;2022-12-17T18:03:51;1.30;99.90
53880;DHT22;39791;53.184;5.486;2022-12-17T18:06:18;1.40;99.90
53880;DHT22;39791;53.184;5.486;2022-12-17T18:08:44;1.10;99.90
53880;DHT22;39791;53.184;5.486;2022-12-17T18:11:11;1.10;99.90
53880;DHT22;39791;53.184;5.486;2022-12-17T18:13:38;2.20;1.00
53880;DHT22;39791;53.184;5.486;2022-12-17T18:18:51;1.70;1.00
53880;DHT22;39791;53.184;5.486;2022-12-17T18:21:18;1.80;1.00
53880;DHT22;39791;53.184;5.486;2022-12-17T18:23:44;1.00;1.00
53880;DHT22;39791;53.184;5.486;2022-12-17T18:26:13;1.80;99.90